Time;durP1;ratioP1;P1;durP2;ratioP2;P2;SDS_P1;SDS_P2;PMS_P1;PMS_P2;Temp;Humidity;BMP_temperature;BMP_pressure;BME280_temperature;BME280_humidity;BME280_pressure;Samples;Min_cycle;Max_cycle;Signal;HPM_P1;HPM_P2
2022/07/17 00:02:53;;;;;;;;;;;;;;;;;;;;;
2022/07/17 00:06:22;;;;;;;;;;;;;;;;;;;;;
2022/07/17 00:16:54;;;;;;;;;;;;;;;;;;;;;
2022/07/17 00:19:52;;;;;;;5.15;1.05;;;16.40;80.40;;;;;;6080423;23;20472;-90
2022/07/17 00:22:54;;;;;;;;;;;;;;;;;;;;;
2022/07/17 00:36:04;;;;;;;;;;;;;;;;;;;;;
2022/07/17 00:39:34;;;;;;;;;;;;;;;;;;;;;
2022/07/17 01:17:18;;;;;;;;;;;;;;;;;;;;;
2022/07/17 01:20:27;;;;;;;;;;;;;;;;;;;;;
2022/07/17 01:23:24;;;;;;;;;;;;;;;;;;;;;
2022/07/17 01:26:03;;;;;;;3.03;1.35;;;15.70;84.10;;;;;;6002257;23;20387;-90
2022/07/17 01:29:16;;;;;;;4.57;1.02;;;15.70;84.30;;;;;;6014722;23;20346;-90
2022/07/17 01:32:12;;;;;;;;;;;;;;;;;;;;;
2022/07/17 01:35:35;;;;;;;;;;;;;;;;;;;;;
2022/07/17 01:38:44;;;;;;;;;;;;;;;;;;;;;
2022/07/17 01:42:10;;;;;;;;;;;;;;;;;;;;;
2022/07/17 01:45:38;;;;;;;;;;;;;;;;;;;;;
2022/07/17 01:48:44;;;;;;;;;;;;;;;;;;;;;
2022/07/17 01:55:30;;;;;;;3.10;1.13;;;15.30;86.00;;;;;;6056309;23;20082;-89
2022/07/17 01:58:29;;;;;;;5.10;1.20;;;15.30;86.20;;;;;;6195531;23;19997;-94
2022/07/17 02:04:46;;;;;;;;;;;;;;;;;;;;;
2022/07/17 02:10:56;;;;;;;4.70;1.30;;;15.20;86.90;;;;;;6164094;23;20009;-90
2022/07/17 02:13:54;;;;;;;2.47;1.33;;;15.10;87.10;;;;;;6130436;23;20006;-89
2022/07/17 02:17:05;;;;;;;;;;;;;;;;;;;;;
2022/07/17 02:19:43;;;;;;;;;;;15.00;87.60;;;;;;6192299;23;20035;-89
2022/07/17 02:22:52;;;;;;;2.38;1.10;;;15.00;87.70;;;;;;6165084;23;19904;-93
2022/07/17 02:26:08;;;;;;;;;;;;;;;;;;;;;
2022/07/17 02:29:25;;;;;;;2.70;1.17;;;14.90;88.30;;;;;;6190953;23;20040;-92
2022/07/17 02:32:21;;;;;;;3.78;1.30;;;14.90;88.50;;;;;;6164909;23;20109;-89
2022/07/17 02:35:02;;;;;;;;;;;;;;;;;;;;;
2022/07/17 02:37:52;;;;;;;;;;;;;;;;;;;;;
2022/07/17 02:40:50;;;;;;;4.03;1.35;;;14.80;88.60;;;;;;6190992;23;20005;-91
2022/07/17 02:43:34;;;;;;;;;;;;;;;;;;;;;
2022/07/17 02:46:55;;;;;;;;;;;;;;;;;;;;;
2022/07/17 02:49:59;;;;;;;;;;;;;;;;;;;;;
2022/07/17 02:56:05;;;;;;;;;;;;;;;;;;;;;
2022/07/17 02:59:19;;;;;;;3.25;1.35;;;14.80;89.00;;;;;;6166435;23;20353;-89
2022/07/17 03:09:15;;;;;;;2.88;1.42;;;14.70;89.10;;;;;;6070101;23;20022;-89
2022/07/17 03:12:24;;;;;;;;;;;;;;;;;;;;;
2022/07/17 03:19:05;;;;;;;4.30;1.20;;;14.60;89.40;;;;;;6000220;23;20064;-88
2022/07/17 03:22:15;;;;;;;;;;;;;;;;;;;;;
2022/07/17 03:25:36;;;;;;;;;;;;;;;;;;;;;
2022/07/17 03:31:39;;;;;;;5.15;1.48;;;14.50;90.00;;;;;;6158578;23;20009;-90
2022/07/17 03:37:38;;;;;;;;;;;;;;;;;;;;;
2022/07/17 03:50:44;;;;;;;2.20;1.20;;;14.50;90.10;;;;;;6145061;23;20017;-91
2022/07/17 03:54:09;;;;;;;2.78;1.38;;;14.50;90.10;;;;;;6064810;23;20014;-90
2022/07/17 04:00:58;;;;;;;3.63;1.33;;;14.50;90.20;;;;;;6151803;23;20002;-90
2022/07/17 04:07:15;;;;;;;;;;;;;;;;;;;;;
2022/07/17 04:10:42;;;;;;;;;;;;;;;;;;;;;
2022/07/17 04:13:03;;;;;;;;;;;;;;;;;;;;;
2022/07/17 04:16:00;;;;;;;3.47;1.13;;;14.30;90.70;;;;;;6154359;23;20498;-89
2022/07/17 04:21:49;;;;;;;;;;;;;;;;;;;;;
2022/07/17 04:24:54;;;;;;;;;;;;;;;;;;;;;
2022/07/17 04:27:53;;;;;;;6.22;1.80;;;14.30;91.30;;;;;;6135885;23;20092;-90
2022/07/17 04:31:30;;;;;;;5.90;1.55;;;14.30;91.30;;;;;;6137947;23;20012;-92
2022/07/17 04:34:17;;;;;;;;;;;;;;;;;;;;;
2022/07/17 04:47:01;;;;;;;;;;;;;;;;;;;;;
2022/07/17 04:50:24;;;;;;;;;;;;;;;;;;;;;
2022/07/17 04:53:29;;;;;;;;;;;;;;;;;;;;;
2022/07/17 04:56:37;;;;;;;;;;;;;;;;;;;;;
2022/07/17 05:00:02;;;;;;;;;;;;;;;;;;;;;
2022/07/17 05:10:12;;;;;;;;;;;;;;;;;;;;;
2022/07/17 05:13:19;;;;;;;;;;;;;;;;;;;;;
2022/07/17 05:15:51;;;;;;;2.47;1.20;;;14.80;91.30;;;;;;6011670;23;20011;-91
2022/07/17 05:24:35;;;;;;;8.50;2.08;;;15.00;91.00;;;;;;6012928;23;20039;-88
2022/07/17 05:28:04;;;;;;;4.68;1.60;;;15.00;90.90;;;;;;6056492;23;20016;-89
2022/07/17 05:30:36;;;;;;;2.58;1.00;;;15.10;90.80;;;;;;6048810;23;20039;-91
2022/07/17 05:33:22;;;;;;;2.95;1.35;;;15.10;90.80;;;;;;6112337;23;19990;-88
2022/07/17 05:36:41;;;;;;;;;;;;;;;;;;;;;
2022/07/17 05:39:39;;;;;;;5.20;1.90;;;15.20;90.80;;;;;;6035994;23;20008;-89
2022/07/17 05:42:45;;;;;;;3.95;1.70;;;15.20;90.80;;;;;;6175207;23;20002;-92
2022/07/17 05:45:43;;;;;;;4.43;1.65;;;15.30;90.70;;;;;;6099359;23;20013;-89
2022/07/17 05:48:31;;;;;;;;;;;;;;;;;;;;;
2022/07/17 05:51:46;;;;;;;;;;;;;;;;;;;;;
2022/07/17 05:54:55;;;;;;;1.88;1.25;;;15.40;90.50;;;;;;6176856;23;20032;-91
2022/07/17 05:57:26;;;;;;;3.65;1.48;;;15.40;90.50;;;;;;6143428;23;20032;-89
2022/07/17 06:00:00;;;;;;;3.90;1.60;;;15.50;90.50;;;;;;6165896;23;20001;-89
2022/07/17 06:02:52;;;;;;;2.47;1.25;;;15.50;90.30;;;;;;6141396;23;20035;-89
2022/07/17 06:05:38;;;;;;;3.83;1.50;;;15.50;90.20;;;;;;6192187;23;20005;-92
2022/07/17 06:11:27;;;;;;;;;;;;;;;;;;;;;
2022/07/17 06:14:31;;;;;;;;;;;;;;;;;;;;;
2022/07/17 06:17:35;;;;;;;3.60;1.70;;;15.80;89.80;;;;;;6164791;23;20051;-90
2022/07/17 06:20:50;;;;;;;3.85;1.55;;;15.90;89.30;;;;;;6142671;23;20009;-90
2022/07/17 06:23:21;;;;;;;5.30;1.58;;;15.90;89.00;;;;;;6165127;23;20335;-90
2022/07/17 06:26:18;;;;;;;;;;;;;;;;;;;;;
2022/07/17 06:32:17;;;;;;;;;;;;;;;;;;;;;
2022/07/17 06:35:58;;;;;;;;;;;;;;;;;;;;;
2022/07/17 06:38:46;;;;;;;7.50;1.50;;;16.10;87.50;;;;;;6183566;23;20506;-89
2022/07/17 06:42:06;;;;;;;;;;;;;;;;;;;;;
2022/07/17 06:51:30;;;;;;;;;;;;;;;;;;;;;
2022/07/17 06:54:33;;;;;;;;;;;;;;;;;;;;;
2022/07/17 06:57:46;;;;;;;3.97;1.38;;;16.60;86.50;;;;;;6190331;23;20032;-91
2022/07/17 07:11:39;;;;;;;;;;;;;;;;;;;;;
2022/07/17 07:46:22;;;;;;;2.33;1.13;;;17.80;83.50;;;;;;6146549;23;20455;-93
2022/07/17 07:56:39;;;;;;;;;;;;;;;;;;;;;
2022/07/17 08:20:10;;;;;;;;;;;;;;;;;;;;;
2022/07/17 08:23:25;;;;;;;3.95;0.90;;;18.70;81.20;;;;;;6068902;23;20056;-92
2022/07/17 08:29:53;;;;;;;;;;;;;;;;;;;;;
2022/07/17 08:40:25;;;;;;;;;;;;;;;;;;;;;
2022/07/17 08:44:02;;;;;;;;;;;;;;;;;;;;;
2022/07/17 08:47:44;;;;;;;2.45;1.00;;;19.20;79.90;;;;;;6157290;23;20004;-92
2022/07/17 08:51:00;;;;;;;;;;;;;;;;;;;;;
2022/07/17 08:54:11;;;;;;;2.60;1.00;;;19.40;79.40;;;;;;6121368;23;20037;-93
2022/07/17 09:07:36;;;;;;;;;;;;;;;;;;;;;
2022/07/17 09:14:33;;;;;;;;;;;;;;;;;;;;;
2022/07/17 09:17:41;;;;;;;;;;;;;;;;;;;;;
2022/07/17 09:20:58;;;;;;;2.08;1.02;;;19.90;75.30;;;;;;6001259;23;20012;-93
2022/07/17 09:23:49;;;;;;;2.25;1.00;;;19.90;75.20;;;;;;6186553;23;19992;-92
2022/07/17 09:27:22;;;;;;;;;;;;;;;;;;;;;
2022/07/17 09:30:28;;;;;;;;;;;;;;;;;;;;;
2022/07/17 09:37:10;;;;;;;3.00;0.90;;;20.20;74.70;;;;;;6200733;23;20024;-91
2022/07/17 09:43:45;;;;;;;;;;;;;;;;;;;;;
2022/07/17 09:46:43;;;;;;;;;;;;;;;;;;;;;
2022/07/17 09:50:06;;;;;;;;;;;;;;;;;;;;;
2022/07/17 09:57:17;;;;;;;;;;;;;;;;;;;;;
2022/07/17 10:00:45;;;;;;;4.95;1.02;;;20.60;73.10;;;;;;6225517;23;20031;-92
2022/07/17 10:06:59;;;;;;;;;;;;;;;;;;;;;
2022/07/17 10:13:17;;;;;;;;;;;;;;;;;;;;;
2022/07/17 10:23:28;;;;;;;;;;;;;;;;;;;;;
2022/07/17 10:30:28;;;;;;;2.17;0.98;;;21.20;71.90;;;;;;5900224;24;20021;-93
2022/07/17 10:33:50;;;;;;;;;;;;;;;;;;;;;
2022/07/17 10:50:29;;;;;;;4.03;1.13;;;21.40;70.60;;;;;;5814902;24;20038;-93
2022/07/17 11:04:39;;;;;;;;;;;;;;;;;;;;;
2022/07/17 11:14:47;;;;;;;;;;;;;;;;;;;;;
2022/07/17 11:25:09;;;;;;;;;;;;;;;;;;;;;
2022/07/17 11:28:26;;;;;;;;;;;;;;;;;;;;;
2022/07/17 12:13:42;;;;;;;;;;;;;;;;;;;;;
2022/07/17 12:17:56;;;;;;;;;;;;;;;;;;;;;
2022/07/17 12:31:30;;;;;;;;;;;;;;;;;;;;;
2022/07/17 13:02:26;;;;;;;;;;;;;;;;;;;;;
2022/07/17 13:05:42;;;;;;;;;;;;;;;;;;;;;
2022/07/17 13:08:57;;;;;;;;;;;;;;;;;;;;;
2022/07/17 13:28:49;;;;;;;2.15;1.17;;;24.20;64.00;;;;;;6062633;23;20011;-88
2022/07/17 14:03:28;;;;;;;2.53;1.20;;;24.50;62.30;;;;;;5742304;24;20358;-86
2022/07/17 14:05:54;;;;;;;1.58;1.00;;;24.60;61.00;;;;;;5851689;23;20323;-86
2022/07/17 14:08:20;;;;;;;2.05;1.15;;;24.60;60.30;;;;;;6111713;23;20036;-86
2022/07/17 14:10:46;;;;;;;3.70;1.33;;;24.70;59.70;;;;;;6198271;23;20014;-88
2022/07/17 14:13:14;;;;;;;2.10;1.35;;;24.70;58.70;;;;;;6226958;23;20438;-88
2022/07/17 14:15:39;;;;;;;3.15;1.48;;;24.80;58.40;;;;;;6202907;23;20491;-89
2022/07/17 14:18:05;;;;;;;1.63;1.20;;;24.80;57.80;;;;;;6227019;23;20002;-86
2022/07/17 14:20:31;;;;;;;2.35;1.20;;;24.80;58.30;;;;;;6227373;23;20014;-86
2022/07/17 14:22:57;;;;;;;2.13;1.10;;;24.80;58.60;;;;;;6225631;23;19998;-88
2022/07/17 14:25:43;;;;;;;1.08;0.77;;;24.90;58.30;;;;;;6209173;23;20068;-87
2022/07/17 14:28:09;;;;;;;2.03;1.10;;;24.90;58.30;;;;;;6203475;23;20006;-88
2022/07/17 14:30:35;;;;;;;2.08;1.23;;;24.90;58.70;;;;;;6227353;23;20131;-88
2022/07/17 14:33:01;;;;;;;1.65;1.10;;;24.90;58.50;;;;;;6225100;23;20737;-85
2022/07/17 14:35:27;;;;;;;2.58;1.45;;;25.00;58.00;;;;;;6226832;23;20010;-87
2022/07/17 14:37:53;;;;;;;2.30;1.50;;;25.00;57.50;;;;;;6200493;23;20475;-86
2022/07/17 14:40:19;;;;;;;2.20;1.40;;;25.10;56.60;;;;;;6201112;23;20021;-88
2022/07/17 14:42:49;;;;;;;4.28;1.63;;;25.10;56.90;;;;;;6227079;23;20002;-87
2022/07/17 14:45:15;;;;;;;2.10;1.35;;;25.10;56.90;;;;;;6124983;23;20014;-88
2022/07/17 14:47:41;;;;;;;2.38;1.30;;;25.10;57.30;;;;;;6226901;23;20475;-85
2022/07/17 14:50:08;;;;;;;1.65;1.13;;;25.20;57.60;;;;;;6201243;23;20028;-85
2022/07/17 14:52:34;;;;;;;2.65;1.42;;;25.20;57.30;;;;;;6227000;23;19998;-88
2022/07/17 14:55:00;;;;;;;2.97;1.55;;;25.20;57.00;;;;;;6200498;23;20014;-89
2022/07/17 14:57:26;;;;;;;1.55;1.23;;;25.30;56.90;;;;;;6226475;23;20006;-86
2022/07/17 14:59:53;;;;;;;2.15;1.70;;;25.30;56.60;;;;;;6224747;23;20151;-87
2022/07/17 15:02:19;;;;;;;1.80;1.30;;;25.30;56.00;;;;;;6220602;22;20447;-86
2022/07/17 15:04:45;;;;;;;3.97;1.83;;;25.30;55.90;;;;;;6232332;22;20001;-87
2022/07/17 15:07:14;;;;;;;2.35;1.83;;;25.40;56.20;;;;;;6256704;22;20006;-86
2022/07/17 15:09:39;;;;;;;3.47;2.00;;;25.40;55.50;;;;;;6153001;23;20089;-85
2022/07/17 15:12:08;;;;;;;1.92;1.58;;;25.50;55.40;;;;;;6256221;22;20037;-86
2022/07/17 15:14:34;;;;;;;2.35;1.88;;;25.40;55.10;;;;;;6232012;22;20012;-87
2022/07/17 15:17:01;;;;;;;3.13;2.05;;;25.50;54.70;;;;;;6256611;22;20002;-86
2022/07/17 15:19:27;;;;;;;2.35;1.95;;;25.50;54.80;;;;;;6255879;22;20450;-86
2022/07/17 15:21:52;;;;;;;2.22;2.03;;;25.50;55.00;;;;;;6256111;22;20009;-84
2022/07/17 15:24:18;;;;;;;2.75;1.90;;;25.50;55.00;;;;;;6256056;22;20331;-85
2022/07/17 15:26:45;;;;;;;2.63;2.10;;;25.60;54.90;;;;;;6204058;23;20013;-85
2022/07/17 15:29:12;;;;;;;5.72;3.03;;;25.60;55.50;;;;;;6231203;22;20009;-85
2022/07/17 15:31:37;;;;;;;5.13;3.10;;;25.60;55.30;;;;;;6231428;23;20300;-87
2022/07/17 15:34:05;;;;;;;3.63;2.83;;;25.60;54.80;;;;;;6232788;23;20016;-85
2022/07/17 15:36:31;;;;;;;3.72;2.83;;;25.60;54.90;;;;;;6227139;22;20013;-83
2022/07/17 15:38:59;;;;;;;5.55;3.35;;;25.60;54.90;;;;;;6231155;22;20014;-85
2022/07/17 15:41:28;;;;;;;4.38;2.75;;;25.60;55.10;;;;;;6256008;22;20012;-85
2022/07/17 15:43:54;;;;;;;3.67;2.88;;;25.60;54.80;;;;;;6257275;22;20006;-86
2022/07/17 15:46:19;;;;;;;5.03;3.25;;;25.70;55.10;;;;;;6258143;22;19997;-86
2022/07/17 15:48:53;;;;;;;4.10;2.88;;;25.70;55.30;;;;;;6258701;22;20001;-86
2022/07/17 15:51:19;;;;;;;3.70;2.60;;;25.70;55.00;;;;;;6182788;22;20001;-85
2022/07/17 15:53:45;;;;;;;3.00;2.70;;;25.70;55.00;;;;;;6281232;22;20060;-86
2022/07/17 15:56:11;;;;;;;3.10;2.80;;;25.80;55.20;;;;;;6177189;22;19986;-88
2022/07/17 15:58:36;;;;;;;3.75;2.50;;;25.80;55.60;;;;;;6256110;22;19990;-86
2022/07/17 16:01:03;;;;;;;4.13;2.60;;;25.80;54.70;;;;;;6292125;22;20472;-87
2022/07/17 16:03:29;;;;;;;3.83;3.20;;;25.80;54.60;;;;;;6333111;22;19989;-86
2022/07/17 16:05:54;;;;;;;3.88;2.85;;;25.80;54.30;;;;;;6286240;22;20011;-87
2022/07/17 16:08:20;;;;;;;4.15;3.17;;;25.90;54.40;;;;;;6258066;22;20000;-88
2022/07/17 16:10:46;;;;;;;5.18;3.30;;;25.90;54.30;;;;;;6308918;22;20375;-85
2022/07/17 16:13:12;;;;;;;3.95;2.83;;;25.80;54.00;;;;;;6282852;22;20079;-85
2022/07/17 16:15:38;;;;;;;2.75;2.50;;;25.80;53.90;;;;;;6309322;22;20417;-88
2022/07/17 16:18:03;;;;;;;3.05;2.75;;;25.80;53.60;;;;;;6283222;22;20328;-87
2022/07/17 16:20:29;;;;;;;3.55;2.67;;;25.70;53.90;;;;;;6255947;22;20015;-88
2022/07/17 16:22:57;;;;;;;3.17;2.88;;;25.80;53.40;;;;;;6256694;22;20007;-87
2022/07/17 16:25:23;;;;;;;4.70;3.00;;;25.70;53.50;;;;;;6256299;22;20012;-87
2022/07/17 16:27:49;;;;;;;4.72;3.28;;;25.70;53.90;;;;;;6309099;22;20075;-87
2022/07/17 16:30:15;;;;;;;3.17;2.88;;;25.70;54.50;;;;;;6254825;22;20030;-86
2022/07/17 16:32:43;;;;;;;4.57;3.33;;;25.70;53.90;;;;;;6310058;22;20015;-86
2022/07/17 16:35:09;;;;;;;3.10;2.63;;;25.70;53.60;;;;;;6282686;22;19999;-85
2022/07/17 16:37:35;;;;;;;3.80;2.70;;;25.70;53.70;;;;;;6282193;22;20042;-85
2022/07/17 16:40:01;;;;;;;4.70;3.60;;;25.60;53.60;;;;;;6281360;22;20344;-87
2022/07/17 16:42:30;;;;;;;6.03;3.75;;;25.70;53.30;;;;;;6282922;22;20075;-87
2022/07/17 16:44:56;;;;;;;3.90;2.92;;;25.70;53.40;;;;;;6257379;22;20081;-88
2022/07/17 16:47:23;;;;;;;3.58;2.95;;;25.60;53.70;;;;;;6282921;22;19995;-88
2022/07/17 16:49:48;;;;;;;3.70;2.70;;;25.70;54.10;;;;;;6282811;22;20037;-87
2022/07/17 16:52:14;;;;;;;4.40;3.55;;;25.70;54.40;;;;;;6282808;22;20021;-84
2022/07/17 16:54:40;;;;;;;3.45;3.03;;;25.60;54.20;;;;;;6257830;22;20003;-87
2022/07/17 16:57:06;;;;;;;5.20;3.15;;;25.60;54.10;;;;;;6285858;22;20010;-86
2022/07/17 16:59:31;;;;;;;4.63;3.60;;;25.60;54.20;;;;;;6285470;22;20015;-87
2022/07/17 17:01:57;;;;;;;4.50;3.45;;;25.60;54.30;;;;;;6287536;22;20011;-87
2022/07/17 17:04:23;;;;;;;4.57;3.60;;;25.60;54.10;;;;;;6262594;22;20011;-83
2022/07/17 17:06:49;;;;;;;3.75;3.40;;;25.50;53.50;;;;;;6283644;22;20075;-85
2022/07/17 17:09:15;;;;;;;3.38;3.00;;;25.50;53.40;;;;;;6309284;22;20026;-87
2022/07/17 17:11:42;;;;;;;5.82;3.53;;;25.50;53.40;;;;;;6307868;22;20010;-86
2022/07/17 17:14:08;;;;;;;3.53;3.03;;;25.60;53.50;;;;;;6282451;22;19999;-85
2022/07/17 17:16:33;;;;;;;3.65;3.25;;;25.50;53.20;;;;;;6282195;22;20000;-87
2022/07/17 17:19:00;;;;;;;3.80;3.35;;;25.50;53.30;;;;;;6281217;22;20061;-87
2022/07/17 17:21:26;;;;;;;3.75;3.10;;;25.40;53.40;;;;;;6281800;22;20317;-87
2022/07/17 17:23:53;;;;;;;4.30;3.40;;;25.40;53.70;;;;;;6281580;22;20003;-86
2022/07/17 17:26:20;;;;;;;5.03;3.58;;;25.40;53.50;;;;;;6282014;22;19995;-86
2022/07/17 17:28:47;;;;;;;4.85;3.65;;;25.40;53.30;;;;;;6312045;22;20355;-87
2022/07/17 17:31:15;;;;;;;4.18;3.22;;;25.40;53.80;;;;;;6258167;22;20008;-86
2022/07/17 17:33:41;;;;;;;5.20;3.47;;;25.30;54.30;;;;;;6310600;22;20030;-87
2022/07/17 17:36:07;;;;;;;4.60;3.60;;;25.30;54.30;;;;;;6282612;22;19999;-87
2022/07/17 17:38:33;;;;;;;4.18;3.30;;;25.30;54.00;;;;;;6283787;22;19999;-87
2022/07/17 17:41:00;;;;;;;4.05;3.40;;;25.30;53.80;;;;;;6257707;22;20105;-87
2022/07/17 17:43:27;;;;;;;3.75;2.95;;;25.30;54.50;;;;;;6283242;22;19999;-87
2022/07/17 17:45:54;;;;;;;4.50;2.60;;;25.30;54.30;;;;;;6283803;22;20431;-87
2022/07/17 17:48:21;;;;;;;5.07;3.13;;;25.30;54.60;;;;;;6282496;22;20099;-87
2022/07/17 17:50:50;;;;;;;4.00;3.03;;;25.30;54.90;;;;;;6257340;22;20102;-86
2022/07/17 17:53:15;;;;;;;4.82;3.50;;;25.10;55.00;;;;;;6282764;22;20019;-85
2022/07/17 17:55:44;;;;;;;4.68;3.50;;;25.10;55.30;;;;;;6283121;22;19999;-88
2022/07/17 17:58:10;;;;;;;5.40;3.15;;;25.10;56.50;;;;;;6283357;22;19999;-86
2022/07/17 18:00:36;;;;;;;4.50;3.30;;;25.00;56.80;;;;;;6312433;22;20008;-87
2022/07/17 18:03:02;;;;;;;4.07;2.90;;;24.90;57.30;;;;;;6311846;22;20007;-84
2022/07/17 18:05:31;;;;;;;4.10;3.28;;;24.90;58.50;;;;;;6296893;22;19991;-86
2022/07/17 18:07:59;;;;;;;3.88;2.85;;;24.80;60.00;;;;;;6281260;22;19992;-86
2022/07/17 18:10:25;;;;;;;3.85;3.08;;;24.60;60.70;;;;;;6306635;22;20011;-87
2022/07/17 18:12:51;;;;;;;3.75;2.88;;;24.50;61.30;;;;;;6306644;22;19994;-87
2022/07/17 18:15:19;;;;;;;4.03;2.70;;;24.50;62.30;;;;;;6335094;22;20006;-87
2022/07/17 18:17:46;;;;;;;4.38;3.15;;;24.40;62.40;;;;;;6282990;22;19988;-86
2022/07/17 18:20:12;;;;;;;3.00;2.60;;;24.20;63.10;;;;;;6267152;22;20007;-87
2022/07/17 18:22:39;;;;;;;3.83;3.17;;;24.20;64.00;;;;;;6288649;22;20031;-87
2022/07/17 18:25:07;;;;;;;4.05;3.10;;;24.00;65.40;;;;;;6284616;22;19999;-89
2022/07/17 18:27:33;;;;;;;4.35;3.40;;;23.90;66.10;;;;;;6284889;22;20333;-86
2022/07/17 18:29:59;;;;;;;3.67;3.08;;;23.80;66.00;;;;;;6284399;22;20049;-87
2022/07/17 18:32:25;;;;;;;6.07;3.22;;;23.80;65.30;;;;;;6283340;22;20017;-87
2022/07/17 18:34:51;;;;;;;4.07;3.00;;;23.70;65.60;;;;;;6283999;22;20374;-86
2022/07/17 18:37:17;;;;;;;3.20;2.80;;;23.70;65.90;;;;;;6311492;22;20022;-87
2022/07/17 18:39:43;;;;;;;3.50;2.85;;;23.70;65.50;;;;;;6284583;22;20425;-84
2022/07/17 18:42:10;;;;;;;4.63;3.60;;;23.60;65.50;;;;;;6283188;22;20003;-85
2022/07/17 18:44:39;;;;;;;4.32;3.40;;;23.50;64.50;;;;;;6283791;22;20007;-86
2022/07/17 18:47:06;;;;;;;4.85;3.60;;;23.60;63.50;;;;;;6257189;22;20014;-84
2022/07/17 18:49:34;;;;;;;5.93;3.95;;;23.60;63.60;;;;;;6285467;22;20000;-89
2022/07/17 18:52:02;;;;;;;6.95;4.90;;;23.50;64.00;;;;;;6283961;22;20317;-87
2022/07/17 18:54:28;;;;;;;11.25;6.80;;;23.50;64.20;;;;;;6281996;22;20008;-85
2022/07/17 18:56:57;;;;;;;9.68;6.18;;;23.40;65.00;;;;;;6258484;22;20471;-87
2022/07/17 18:59:23;;;;;;;6.78;5.30;;;23.40;65.30;;;;;;6310613;22;20034;-87
2022/07/17 19:01:49;;;;;;;5.97;4.60;;;23.30;65.80;;;;;;6283594;22;20072;-86
2022/07/17 19:04:15;;;;;;;4.80;3.95;;;23.30;66.70;;;;;;6309906;22;20074;-87
2022/07/17 19:06:41;;;;;;;4.35;3.78;;;23.20;67.50;;;;;;6310736;22;19995;-87
2022/07/17 19:09:08;;;;;;;4.90;3.25;;;23.00;68.40;;;;;;6282815;22;20004;-87
2022/07/17 19:11:34;;;;;;;3.95;3.42;;;23.00;69.10;;;;;;6282788;22;20037;-87
2022/07/17 19:14:00;;;;;;;4.65;3.42;;;22.90;69.50;;;;;;6283116;22;20324;-87
2022/07/17 19:16:26;;;;;;;6.55;3.60;;;22.80;69.90;;;;;;6282265;22;20007;-86
2022/07/17 19:18:53;;;;;;;5.20;3.25;;;22.80;70.10;;;;;;6282866;22;19999;-87
2022/07/17 19:24:49;;;;;;;6.10;3.22;;;22.60;70.90;;;;;;6309318;22;20010;-86
2022/07/17 19:27:18;;;;;;;5.05;3.55;;;22.50;71.00;;;;;;6256739;22;20008;-89
2022/07/17 19:29:45;;;;;;;3.75;2.90;;;22.50;71.40;;;;;;6256624;22;20015;-87
2022/07/17 19:32:12;;;;;;;3.00;2.70;;;22.50;71.60;;;;;;6282934;22;20006;-88
2022/07/17 19:34:47;;;;;;;4.70;3.10;;;22.40;71.50;;;;;;6310345;22;20413;-88
2022/07/17 19:37:13;;;;;;;4.93;3.15;;;22.40;71.50;;;;;;6258581;22;20006;-88
2022/07/17 19:39:39;;;;;;;3.00;2.65;;;22.30;72.00;;;;;;6281854;22;20091;-87
2022/07/17 19:42:05;;;;;;;3.67;2.50;;;22.30;72.50;;;;;;6282792;22;20421;-88
2022/07/17 19:44:31;;;;;;;3.53;2.70;;;22.20;72.30;;;;;;6282781;22;19999;-87
2022/07/17 19:46:57;;;;;;;3.58;2.63;;;22.20;72.00;;;;;;6309270;22;19995;-87
2022/07/17 19:49:23;;;;;;;3.55;2.75;;;22.20;71.90;;;;;;6308627;22;20004;-86
2022/07/17 19:52:28;;;;;;;7.82;2.72;;;22.20;72.00;;;;;;6285468;22;20090;-89
2022/07/17 19:55:09;;;;;;;2.70;2.30;;;22.10;72.50;;;;;;6283309;22;20014;-89
2022/07/17 19:58:47;;;;;;;3.42;2.45;;;22.10;72.10;;;;;;6281671;22;20069;-88
2022/07/17 20:10:54;;;;;;;;;;;;;;;;;;;;;
2022/07/17 20:24:06;;;;;;;5.78;2.40;;;21.70;73.30;;;;;;6334944;22;20010;-92
2022/07/17 20:27:04;;;;;;;;;;;;;;;;;;;;;
2022/07/17 20:30:15;;;;;;;2.90;2.28;;;21.70;73.70;;;;;;6154437;23;20009;-89
2022/07/17 20:33:22;;;;;;;3.20;2.60;;;21.60;74.00;;;;;;6157309;23;20343;-89
2022/07/17 20:36:11;;;;;;;;;;;;;;;;;;;;;
2022/07/17 20:43:14;;;;;;;;;;;;;;;;;;;;;
2022/07/17 20:46:27;;;;;;;4.40;2.60;;;21.40;74.70;;;;;;6155221;23;20040;-88
2022/07/17 20:49:33;;;;;;;;;;;;;;;;;;;;;
2022/07/17 20:52:34;;;;;;;;;;;;;;;;;;;;;
2022/07/17 20:55:37;;;;;;;;;;;;;;;;;;;;;
2022/07/17 20:58:41;;;;;;;;;;;;;;;;;;;;;
2022/07/17 21:02:06;;;;;;;;;;;;;;;;;;;;;
2022/07/17 21:05:03;;;;;;;;;;;;;;;;;;;;;
2022/07/17 21:07:56;;;;;;;;;;;;;;;;;;;;;
2022/07/17 21:10:47;;;;;;;;;;;;;;;;;;;;;
2022/07/17 21:13:28;;;;;;;;;;;;;;;;;;;;;
2022/07/17 21:19:16;;;;;;;;;;;21.00;75.20;;;;;;6145417;23;20029;-91
2022/07/17 21:22:18;;;;;;;;;;;;;;;;;;;;;
2022/07/17 21:25:39;;;;;;;;;;;;;;;;;;;;;
2022/07/17 21:31:32;;;;;;;5.00;2.78;;;20.80;75.40;;;;;;6125401;23;20101;-89
2022/07/17 21:40:39;;;;;;;;;;;;;;;;;;;;;
2022/07/17 21:43:37;;;;;;;4.20;2.60;;;20.60;76.30;;;;;;6127199;23;20029;-89
2022/07/17 21:46:11;;;;;;;4.55;3.05;;;20.50;76.00;;;;;;6114303;23;20408;-88
2022/07/17 21:49:22;;;;;;;4.43;2.85;;;20.50;75.90;;;;;;6103017;23;20072;-90
2022/07/17 21:52:29;;;;;;;4.03;2.85;;;20.50;75.90;;;;;;6111826;23;20010;-88
2022/07/17 22:01:47;;;;;;;5.07;3.03;;;20.30;76.20;;;;;;6113796;23;20018;-90
2022/07/17 22:07:18;;;;;;;;;;;;;;;;;;;;;
2022/07/17 22:10:09;;;;;;;4.88;2.90;;;20.30;75.70;;;;;;6127353;23;20021;-90
2022/07/17 22:12:55;;;;;;;4.80;2.85;;;20.30;75.70;;;;;;6125659;23;20490;-89
2022/07/17 22:15:41;;;;;;;4.00;2.97;;;20.30;75.60;;;;;;6141728;23;20061;-89
2022/07/17 22:18:34;;;;;;;5.35;3.60;;;20.20;75.70;;;;;;6130441;23;20010;-88
2022/07/17 22:22:01;;;;;;;;;;;;;;;;;;;;;
2022/07/17 22:24:57;;;;;;;;;;;;;;;;;;;;;
2022/07/17 22:28:38;;;;;;;;;;;;;;;;;;;;;
2022/07/17 22:31:06;;;;;;;7.75;3.25;;;20.10;76.20;;;;;;6166239;23;20018;-92
2022/07/17 22:34:13;;;;;;;;;;;;;;;;;;;;;
2022/07/17 22:40:28;;;;;;;4.38;2.90;;;19.90;77.50;;;;;;6144442;23;20013;-89
2022/07/17 22:43:27;;;;;;;;;;;;;;;;;;;;;
2022/07/17 22:53:03;;;;;;;;;;;;;;;;;;;;;
2022/07/17 22:55:46;;;;;;;4.57;3.20;;;19.60;79.00;;;;;;6134205;23;20028;-90
2022/07/17 22:58:53;;;;;;;;;;;;;;;;;;;;;
2022/07/17 23:05:29;;;;;;;;;;;;;;;;;;;;;
2022/07/17 23:08:14;;;;;;;4.53;3.00;;;19.30;79.60;;;;;;6201146;23;20077;-87
2022/07/17 23:11:40;;;;;;;;;;;;;;;;;;;;;
2022/07/17 23:21:29;;;;;;;3.60;2.80;;;19.10;80.80;;;;;;6123646;23;20009;-90
2022/07/17 23:24:10;;;;;;;4.15;2.92;;;19.10;81.20;;;;;;6035682;23;20004;-90
2022/07/17 23:27:19;;;;;;;4.05;3.45;;;19.00;81.40;;;;;;6155755;23;20105;-89
2022/07/17 23:30:07;;;;;;;;;;;;;;;;;;;;;
2022/07/17 23:32:55;;;;;;;5.00;3.38;;;18.90;81.80;;;;;;6156444;23;20082;-89
2022/07/17 23:42:00;;;;;;;;;;;;;;;;;;;;;
2022/07/17 23:45:02;;;;;;;;;;;;;;;;;;;;;
2022/07/17 23:51:17;;;;;;;;;;;;;;;;;;;;;
2022/07/17 23:57:25;;;;;;;;;;;;;;;;;;;;;
